Zwartebroek, Netherlands
Current Conditions -  °F | °C
As of 10:25 AM on Thursday 27 Nov 2014 (Local Time) from EHDL Reporting Station
Overcast Overcast  
Wind Chill: 39°   Ceiling: 1300
Heat Index: 45°   Visibility: 6mi
Dew Point: 41°   Wind: 10mph
Humidity: 87%   Direction: 120°ESE
Pressure: 29.77"   Gusts: NA
Location:  52.18°N, 5.5°E
Report Text: EHDL 270925Z AUTO 12009KT 9999 OVC013 07/05 Q1008 GRN
Loading
Personal Weather Stations






























Interactive Weather Map New forecast layout! Learn more

10-Day Weather Forecast

Advertisements
Track Severe Weather on mobile